sensor_id;sensor_type;location;lat;lon;timestamp;pressure;altitude;pressure_sealevel;temperature;humidity
40940;BME280;26666;50.156;7.700;2023-05-09T00:02:27;100744.31;;;14.35;100.00
40940;BME280;26666;50.156;7.700;2023-05-09T00:07:29;100751.34;;;14.36;100.00
40940;BME280;26666;50.156;7.700;2023-05-09T00:12:32;100751.34;;;14.36;100.00
40940;BME280;26666;50.156;7.700;2023-05-09T00:17:34;100742.94;;;14.31;100.00
40940;BME280;26666;50.156;7.700;2023-05-09T00:22:36;100740.28;;;14.31;100.00
40940;BME280;26666;50.156;7.700;2023-05-09T00:27:39;100727.78;;;14.42;100.00
40940;BME280;26666;50.156;7.700;2023-05-09T00:32:41;100724.38;;;14.49;100.00
40940;BME280;26666;50.156;7.700;2023-05-09T00:37:42;100720.63;;;14.52;100.00
40940;BME280;26666;50.156;7.700;2023-05-09T00:42:45;100710.81;;;14.52;100.00
40940;BME280;26666;50.156;7.700;2023-05-09T00:47:47;100700.81;;;14.36;100.00
40940;BME280;26666;50.156;7.700;2023-05-09T00:52:49;100700.13;;;14.34;100.00
40940;BME280;26666;50.156;7.700;2023-05-09T00:57:52;100695.56;;;14.27;100.00
40940;BME280;26666;50.156;7.700;2023-05-09T01:02:54;100686.53;;;14.37;100.00
40940;BME280;26666;50.156;7.700;2023-05-09T01:08:02;100682.50;;;14.33;100.00
40940;BME280;26666;50.156;7.700;2023-05-09T01:13:14;100678.47;;;14.29;100.00
40940;BME280;26666;50.156;7.700;2023-05-09T01:18:24;100680.28;;;14.29;100.00
40940;BME280;26666;50.156;7.700;2023-05-09T01:23:59;100664.56;;;14.35;100.00
40940;BME280;26666;50.156;7.700;2023-05-09T01:29:30;100665.19;;;14.29;100.00
40940;BME280;26666;50.156;7.700;2023-05-09T01:34:36;100665.88;;;14.31;100.00
40940;BME280;26666;50.156;7.700;2023-05-09T01:39:39;100663.34;;;14.30;100.00
40940;BME280;26666;50.156;7.700;2023-05-09T01:44:45;100658.88;;;14.30;100.00
40940;BME280;26666;50.156;7.700;2023-05-09T01:49:47;100651.16;;;14.37;100.00
40940;BME280;26666;50.156;7.700;2023-05-09T01:54:50;100648.94;;;14.32;100.00
40940;BME280;26666;50.156;7.700;2023-05-09T01:59:54;100649.81;;;14.23;100.00
40940;BME280;26666;50.156;7.700;2023-05-09T02:04:56;100653.44;;;14.22;100.00
40940;BME280;26666;50.156;7.700;2023-05-09T02:09:59;100660.47;;;14.23;100.00
40940;BME280;26666;50.156;7.700;2023-05-09T02:15:05;100644.38;;;14.25;100.00
40940;BME280;26666;50.156;7.700;2023-05-09T02:20:11;100642.25;;;14.28;100.00
40940;BME280;26666;50.156;7.700;2023-05-09T02:25:27;100634.56;;;14.25;100.00
40940;BME280;26666;50.156;7.700;2023-05-09T02:30:33;100640.16;;;14.22;100.00
40940;BME280;26666;50.156;7.700;2023-05-09T02:35:38;100633.88;;;14.23;100.00
40940;BME280;26666;50.156;7.700;2023-05-09T02:40:41;100636.41;;;14.25;100.00
40940;BME280;26666;50.156;7.700;2023-05-09T02:45:44;100638.38;;;14.23;100.00
40940;BME280;26666;50.156;7.700;2023-05-09T02:50:46;100627.56;;;14.24;100.00
40940;BME280;26666;50.156;7.700;2023-05-09T02:55:48;100631.38;;;14.22;100.00
40940;BME280;26666;50.156;7.700;2023-05-09T03:00:51;100627.88;;;14.21;100.00
40940;BME280;26666;50.156;7.700;2023-05-09T03:05:52;100624.22;;;14.22;100.00
40940;BME280;26666;50.156;7.700;2023-05-09T03:10:54;100617.06;;;14.32;100.00
40940;BME280;26666;50.156;7.700;2023-05-09T03:15:57;100600.94;;;14.34;100.00
40940;BME280;26666;50.156;7.700;2023-05-09T03:20:59;100600.94;;;14.34;100.00
40940;BME280;26666;50.156;7.700;2023-05-09T03:26:00;100601.09;;;14.32;100.00
40940;BME280;26666;50.156;7.700;2023-05-09T03:31:04;100599.41;;;14.31;100.00
40940;BME280;26666;50.156;7.700;2023-05-09T03:36:06;100589.63;;;14.32;100.00
40940;BME280;26666;50.156;7.700;2023-05-09T03:41:08;100588.63;;;14.33;100.00
40940;BME280;26666;50.156;7.700;2023-05-09T03:46:11;100591.06;;;14.26;100.00
40940;BME280;26666;50.156;7.700;2023-05-09T03:51:13;100590.06;;;14.27;100.00
40940;BME280;26666;50.156;7.700;2023-05-09T03:56:15;100590.75;;;14.29;100.00
40940;BME280;26666;50.156;7.700;2023-05-09T04:01:18;100585.44;;;14.29;100.00
40940;BME280;26666;50.156;7.700;2023-05-09T04:06:20;100582.31;;;14.34;100.00
40940;BME280;26666;50.156;7.700;2023-05-09T04:11:21;100584.00;;;14.35;100.00
40940;BME280;26666;50.156;7.700;2023-05-09T04:16:24;100577.31;;;14.31;100.00
40940;BME280;26666;50.156;7.700;2023-05-09T04:21:26;100585.53;;;14.37;100.00
40940;BME280;26666;50.156;7.700;2023-05-09T04:26:28;100573.53;;;14.33;100.00
40940;BME280;26666;50.156;7.700;2023-05-09T04:31:31;100573.38;;;14.35;100.00
40940;BME280;26666;50.156;7.700;2023-05-09T04:36:32;100570.09;;;14.41;100.00
40940;BME280;26666;50.156;7.700;2023-05-09T04:41:34;100562.75;;;14.35;100.00
40940;BME280;26666;50.156;7.700;2023-05-09T04:46:37;100558.31;;;14.44;100.00
40940;BME280;26666;50.156;7.700;2023-05-09T04:51:39;100553.19;;;14.42;100.00
40940;BME280;26666;50.156;7.700;2023-05-09T04:56:41;100547.13;;;14.50;100.00
40940;BME280;26666;50.156;7.700;2023-05-09T05:01:44;100534.25;;;14.45;100.00
40940;BME280;26666;50.156;7.700;2023-05-09T05:06:46;100532.22;;;14.57;100.00
40940;BME280;26666;50.156;7.700;2023-05-09T05:11:47;100533.69;;;14.69;100.00
40940;BME280;26666;50.156;7.700;2023-05-09T05:17:03;100532.91;;;14.77;100.00
40940;BME280;26666;50.156;7.700;2023-05-09T05:22:05;100533.94;;;14.84;100.00
40940;BME280;26666;50.156;7.700;2023-05-09T05:27:07;100532.59;;;14.80;100.00
40940;BME280;26666;50.156;7.700;2023-05-09T05:32:10;100530.75;;;14.81;100.00
40940;BME280;26666;50.156;7.700;2023-05-09T05:37:11;100524.47;;;14.82;100.00
40940;BME280;26666;50.156;7.700;2023-05-09T05:42:13;100527.41;;;14.78;100.00
40940;BME280;26666;50.156;7.700;2023-05-09T05:47:16;100525.28;;;14.82;100.00
40940;BME280;26666;50.156;7.700;2023-05-09T05:52:18;100518.84;;;14.85;100.00
40940;BME280;26666;50.156;7.700;2023-05-09T05:57:20;100521.19;;;14.88;100.00
40940;BME280;26666;50.156;7.700;2023-05-09T06:02:23;100514.88;;;14.89;100.00
40940;BME280;26666;50.156;7.700;2023-05-09T06:07:26;100519.34;;;14.88;100.00
40940;BME280;26666;50.156;7.700;2023-05-09T06:12:27;100510.69;;;14.86;100.00
40940;BME280;26666;50.156;7.700;2023-05-09T06:17:30;100505.75;;;14.91;100.00
40940;BME280;26666;50.156;7.700;2023-05-09T06:22:32;100500.97;;;14.95;100.00
40940;BME280;26666;50.156;7.700;2023-05-09T06:27:34;100482.69;;;15.00;100.00
40940;BME280;26666;50.156;7.700;2023-05-09T06:32:40;100475.69;;;14.99;100.00
40940;BME280;26666;50.156;7.700;2023-05-09T06:37:41;100474.88;;;14.98;100.00
40940;BME280;26666;50.156;7.700;2023-05-09T06:42:43;100477.34;;;15.00;100.00
40940;BME280;26666;50.156;7.700;2023-05-09T06:47:46;100469.59;;;15.07;100.00
40940;BME280;26666;50.156;7.700;2023-05-09T06:52:48;100467.47;;;15.10;100.00
40940;BME280;26666;50.156;7.700;2023-05-09T06:57:51;100464.78;;;15.10;100.00
40940;BME280;26666;50.156;7.700;2023-05-09T07:02:54;100450.19;;;15.14;100.00
40940;BME280;26666;50.156;7.700;2023-05-09T07:07:56;100456.31;;;15.15;100.00
40940;BME280;26666;50.156;7.700;2023-05-09T07:13:02;100445.84;;;15.13;100.00
40940;BME280;26666;50.156;7.700;2023-05-09T07:18:08;100435.53;;;15.10;100.00
40940;BME280;26666;50.156;7.700;2023-05-09T07:23:12;100424.72;;;15.12;100.00
40940;BME280;26666;50.156;7.700;2023-05-09T07:28:14;100412.75;;;15.16;100.00
40940;BME280;26666;50.156;7.700;2023-05-09T07:33:24;100412.75;;;15.16;100.00
40940;BME280;26666;50.156;7.700;2023-05-09T07:38:31;100406.78;;;15.22;100.00
40940;BME280;26666;50.156;7.700;2023-05-09T07:43:52;100406.28;;;15.18;100.00
40940;BME280;26666;50.156;7.700;2023-05-09T07:48:56;100402.31;;;15.23;100.00
40940;BME280;26666;50.156;7.700;2023-05-09T07:53:58;100406.97;;;15.29;100.00
40940;BME280;26666;50.156;7.700;2023-05-09T07:58:59;100408.31;;;15.33;100.00
40940;BME280;26666;50.156;7.700;2023-05-09T08:04:03;100393.00;;;15.27;100.00
40940;BME280;26666;50.156;7.700;2023-05-09T08:09:05;100384.06;;;15.44;100.00
40940;BME280;26666;50.156;7.700;2023-05-09T08:14:09;100374.38;;;15.35;100.00
40940;BME280;26666;50.156;7.700;2023-05-09T08:19:12;100364.41;;;15.37;100.00
40940;BME280;26666;50.156;7.700;2023-05-09T08:24:13;100363.09;;;15.41;100.00
40940;BME280;26666;50.156;7.700;2023-05-09T08:29:15;100364.41;;;15.37;100.00
40940;BME280;26666;50.156;7.700;2023-05-09T08:34:19;100355.59;;;15.36;100.00
40940;BME280;26666;50.156;7.700;2023-05-09T08:39:31;100344.78;;;15.38;100.00
40940;BME280;26666;50.156;7.700;2023-05-09T08:44:54;100343.09;;;15.37;100.00
40940;BME280;26666;50.156;7.700;2023-05-09T08:50:06;100346.81;;;15.52;100.00
40940;BME280;26666;50.156;7.700;2023-05-09T08:55:19;100342.50;;;15.68;100.00
40940;BME280;26666;50.156;7.700;2023-05-09T09:01:21;100343.66;;;15.65;100.00
40940;BME280;26666;50.156;7.700;2023-05-09T09:13:36;100309.88;;;15.66;100.00
40940;BME280;26666;50.156;7.700;2023-05-09T09:24:31;100296.91;;;15.63;100.00
40940;BME280;26666;50.156;7.700;2023-05-09T09:30:55;100298.25;;;15.83;100.00
40940;BME280;26666;50.156;7.700;2023-05-09T09:36:00;100276.09;;;16.15;100.00
40940;BME280;26666;50.156;7.700;2023-05-09T09:41:04;100278.88;;;16.22;100.00
40940;BME280;26666;50.156;7.700;2023-05-09T10:12:19;100200.75;;;16.61;100.00
40940;BME280;26666;50.156;7.700;2023-05-09T10:23:51;100185.81;;;16.52;100.00
40940;BME280;26666;50.156;7.700;2023-05-09T10:42:04;100161.91;;;16.27;100.00
40940;BME280;26666;50.156;7.700;2023-05-09T10:55:09;100152.06;;;16.28;100.00
40940;BME280;26666;50.156;7.700;2023-05-09T11:07:23;100136.56;;;16.31;100.00
40940;BME280;26666;50.156;7.700;2023-05-09T11:12:53;100124.22;;;16.39;100.00
40940;BME280;26666;50.156;7.700;2023-05-09T11:18:16;100110.03;;;16.38;100.00
40940;BME280;26666;50.156;7.700;2023-05-09T11:23:59;100097.22;;;16.33;100.00
40940;BME280;26666;50.156;7.700;2023-05-09T11:44:31;100063.97;;;16.52;100.00
40940;BME280;26666;50.156;7.700;2023-05-09T11:55:21;100052.44;;;16.75;100.00
40940;BME280;26666;50.156;7.700;2023-05-09T12:13:58;100020.41;;;16.83;100.00
40940;BME280;26666;50.156;7.700;2023-05-09T12:43:53;99983.72;;;16.62;100.00
40940;BME280;26666;50.156;7.700;2023-05-09T12:49:58;99979.19;;;16.86;100.00
40940;BME280;26666;50.156;7.700;2023-05-09T13:01:22;99978.72;;;16.82;100.00
40940;BME280;26666;50.156;7.700;2023-05-09T13:07:31;99968.19;;;16.66;100.00
40940;BME280;26666;50.156;7.700;2023-05-09T13:13:36;99970.38;;;16.62;100.00
40940;BME280;26666;50.156;7.700;2023-05-09T13:20:12;99961.09;;;16.73;100.00
40940;BME280;26666;50.156;7.700;2023-05-09T13:38:13;99936.47;;;16.48;100.00
40940;BME280;26666;50.156;7.700;2023-05-09T13:43:55;99926.44;;;16.50;100.00
40940;BME280;26666;50.156;7.700;2023-05-09T13:49:46;99921.19;;;16.42;100.00
40940;BME280;26666;50.156;7.700;2023-05-09T14:03:07;99905.56;;;16.39;100.00
40940;BME280;26666;50.156;7.700;2023-05-09T14:08:50;99897.81;;;16.29;100.00
40940;BME280;26666;50.156;7.700;2023-05-09T14:16:12;99892.66;;;16.27;100.00
40940;BME280;26666;50.156;7.700;2023-05-09T14:20:42;99885.41;;;16.21;100.00
40940;BME280;26666;50.156;7.700;2023-05-09T14:33:05;99857.28;;;16.33;100.00
40940;BME280;26666;50.156;7.700;2023-05-09T14:39:57;99856.94;;;16.36;100.00
40940;BME280;26666;50.156;7.700;2023-05-09T14:45:03;99853.25;;;16.38;100.00
40940;BME280;26666;50.156;7.700;2023-05-09T14:50:59;99841.84;;;16.44;100.00
40940;BME280;26666;50.156;7.700;2023-05-09T15:09:00;99817.59;;;16.39;100.00
40940;BME280;26666;50.156;7.700;2023-05-09T15:14:02;99810.75;;;16.36;100.00
40940;BME280;26666;50.156;7.700;2023-05-09T15:19:14;99807.41;;;16.42;100.00
40940;BME280;26666;50.156;7.700;2023-05-09T15:24:17;99802.06;;;16.42;100.00
40940;BME280;26666;50.156;7.700;2023-05-09T15:29:19;99800.69;;;16.46;100.00
40940;BME280;26666;50.156;7.700;2023-05-09T15:34:30;99800.38;;;16.41;100.00
40940;BME280;26666;50.156;7.700;2023-05-09T15:39:34;99784.84;;;16.45;100.00
40940;BME280;26666;50.156;7.700;2023-05-09T15:44:35;99791.66;;;16.47;100.00
40940;BME280;26666;50.156;7.700;2023-05-09T15:49:37;99793.38;;;16.40;100.00
40940;BME280;26666;50.156;7.700;2023-05-09T15:54:40;99775.00;;;16.30;100.00
40940;BME280;26666;50.156;7.700;2023-05-09T15:59:42;99779.31;;;16.31;100.00
40940;BME280;26666;50.156;7.700;2023-05-09T16:04:44;99765.91;;;16.40;100.00
40940;BME280;26666;50.156;7.700;2023-05-09T16:09:47;99765.66;;;16.34;100.00
40940;BME280;26666;50.156;7.700;2023-05-09T16:14:48;99767.84;;;16.46;100.00
40940;BME280;26666;50.156;7.700;2023-05-09T16:20:29;99766.94;;;16.39;100.00
40940;BME280;26666;50.156;7.700;2023-05-09T16:25:32;99767.84;;;16.31;100.00
40940;BME280;26666;50.156;7.700;2023-05-09T16:30:36;99764.88;;;16.26;100.00
40940;BME280;26666;50.156;7.700;2023-05-09T16:35:38;99770.94;;;16.20;100.00
40940;BME280;26666;50.156;7.700;2023-05-09T16:40:41;99767.00;;;16.15;100.00
40940;BME280;26666;50.156;7.700;2023-05-09T16:45:43;99761.84;;;16.14;100.00
40940;BME280;26666;50.156;7.700;2023-05-09T16:50:45;99753.22;;;16.12;100.00
40940;BME280;26666;50.156;7.700;2023-05-09T16:55:48;99752.38;;;16.26;100.00
40940;BME280;26666;50.156;7.700;2023-05-09T17:00:49;99750.09;;;16.23;100.00
40940;BME280;26666;50.156;7.700;2023-05-09T17:05:51;99759.69;;;16.32;100.00
40940;BME280;26666;50.156;7.700;2023-05-09T17:10:55;99746.78;;;16.21;100.00
40940;BME280;26666;50.156;7.700;2023-05-09T17:15:57;99758.56;;;16.27;100.00
40940;BME280;26666;50.156;7.700;2023-05-09T17:20:59;99766.91;;;16.24;100.00
40940;BME280;26666;50.156;7.700;2023-05-09T17:26:02;99750.84;;;16.17;100.00
40940;BME280;26666;50.156;7.700;2023-05-09T17:31:03;99750.63;;;16.19;100.00
40940;BME280;26666;50.156;7.700;2023-05-09T17:36:07;99733.81;;;16.18;100.00
40940;BME280;26666;50.156;7.700;2023-05-09T17:41:12;99731.53;;;16.15;100.00
40940;BME280;26666;50.156;7.700;2023-05-09T17:46:13;99740.88;;;16.11;100.00
40940;BME280;26666;50.156;7.700;2023-05-09T17:51:15;99726.72;;;16.10;100.00
40940;BME280;26666;50.156;7.700;2023-05-09T17:56:18;99722.59;;;16.08;100.00
40940;BME280;26666;50.156;7.700;2023-05-09T18:01:20;99721.97;;;16.06;100.00
40940;BME280;26666;50.156;7.700;2023-05-09T18:06:22;99720.28;;;16.05;100.00
40940;BME280;26666;50.156;7.700;2023-05-09T18:11:25;99725.28;;;16.08;100.00
40940;BME280;26666;50.156;7.700;2023-05-09T18:16:26;99722.78;;;16.06;100.00
40940;BME280;26666;50.156;7.700;2023-05-09T18:21:28;99716.63;;;16.06;100.00
40940;BME280;26666;50.156;7.700;2023-05-09T18:26:31;99702.19;;;16.00;100.00
40940;BME280;26666;50.156;7.700;2023-05-09T18:31:33;99710.38;;;15.99;100.00
40940;BME280;26666;50.156;7.700;2023-05-09T18:36:34;99708.34;;;16.01;100.00
40940;BME280;26666;50.156;7.700;2023-05-09T18:41:38;99707.53;;;16.00;100.00
40940;BME280;26666;50.156;7.700;2023-05-09T18:46:39;99716.50;;;15.99;100.00
40940;BME280;26666;50.156;7.700;2023-05-09T18:51:41;99716.91;;;15.96;100.00
40940;BME280;26666;50.156;7.700;2023-05-09T18:56:44;99712.38;;;15.96;100.00
40940;BME280;26666;50.156;7.700;2023-05-09T19:01:46;99711.09;;;15.92;100.00
40940;BME280;26666;50.156;7.700;2023-05-09T19:06:48;99702.06;;;15.93;100.00
40940;BME280;26666;50.156;7.700;2023-05-09T19:11:51;99705.78;;;15.92;100.00
40940;BME280;26666;50.156;7.700;2023-05-09T19:16:53;99709.44;;;15.91;100.00
40940;BME280;26666;50.156;7.700;2023-05-09T19:21:55;99713.13;;;15.90;100.00
40940;BME280;26666;50.156;7.700;2023-05-09T19:26:58;99717.81;;;15.88;100.00
40940;BME280;26666;50.156;7.700;2023-05-09T19:31:59;99720.63;;;15.87;100.00
40940;BME280;26666;50.156;7.700;2023-05-09T19:37:01;99725.97;;;15.87;100.00
40940;BME280;26666;50.156;7.700;2023-05-09T19:42:04;99731.13;;;15.88;100.00
40940;BME280;26666;50.156;7.700;2023-05-09T19:47:06;99729.44;;;15.87;100.00
40940;BME280;26666;50.156;7.700;2023-05-09T19:52:08;99740.09;;;15.87;100.00
40940;BME280;26666;50.156;7.700;2023-05-09T19:57:11;99732.50;;;15.84;100.00
40940;BME280;26666;50.156;7.700;2023-05-09T20:02:12;99730.66;;;15.85;100.00
40940;BME280;26666;50.156;7.700;2023-05-09T20:07:14;99724.50;;;15.84;100.00
40940;BME280;26666;50.156;7.700;2023-05-09T20:12:17;99727.16;;;15.84;100.00
40940;BME280;26666;50.156;7.700;2023-05-09T20:17:19;99722.00;;;15.83;100.00
40940;BME280;26666;50.156;7.700;2023-05-09T20:22:21;99722.38;;;15.80;100.00
40940;BME280;26666;50.156;7.700;2023-05-09T20:27:24;99729.91;;;15.76;100.00
40940;BME280;26666;50.156;7.700;2023-05-09T20:32:26;99727.09;;;15.69;100.00
40940;BME280;26666;50.156;7.700;2023-05-09T20:37:27;99721.84;;;15.61;100.00
40940;BME280;26666;50.156;7.700;2023-05-09T20:42:30;99720.38;;;15.58;100.00
40940;BME280;26666;50.156;7.700;2023-05-09T20:47:32;99714.75;;;15.53;100.00
40940;BME280;26666;50.156;7.700;2023-05-09T20:52:34;99716.38;;;15.54;100.00
40940;BME280;26666;50.156;7.700;2023-05-09T20:57:37;99718.94;;;15.48;100.00
40940;BME280;26666;50.156;7.700;2023-05-09T21:02:39;99714.44;;;15.48;100.00
40940;BME280;26666;50.156;7.700;2023-05-09T21:07:41;99721.06;;;15.52;100.00
40940;BME280;26666;50.156;7.700;2023-05-09T21:12:44;99727.03;;;15.54;100.00
40940;BME280;26666;50.156;7.700;2023-05-09T21:17:45;99724.38;;;15.54;100.00
40940;BME280;26666;50.156;7.700;2023-05-09T21:22:47;99717.59;;;15.52;100.00
40940;BME280;26666;50.156;7.700;2023-05-09T21:27:50;99717.59;;;15.52;100.00
40940;BME280;26666;50.156;7.700;2023-05-09T21:32:52;99717.97;;;15.49;100.00
40940;BME280;26666;50.156;7.700;2023-05-09T21:37:54;99725.94;;;15.49;100.00
40940;BME280;26666;50.156;7.700;2023-05-09T21:42:57;99732.44;;;15.46;100.00
40940;BME280;26666;50.156;7.700;2023-05-09T21:47:58;99728.13;;;15.45;100.00
40940;BME280;26666;50.156;7.700;2023-05-09T21:53:00;99734.81;;;15.41;100.00
40940;BME280;26666;50.156;7.700;2023-05-09T21:58:03;99733.16;;;15.40;100.00
40940;BME280;26666;50.156;7.700;2023-05-09T22:03:05;99733.50;;;15.37;100.00
40940;BME280;26666;50.156;7.700;2023-05-09T22:08:07;99742.50;;;15.36;100.00
40940;BME280;26666;50.156;7.700;2023-05-09T22:13:10;99742.66;;;15.34;100.00
40940;BME280;26666;50.156;7.700;2023-05-09T22:18:11;99745.50;;;15.33;100.00
40940;BME280;26666;50.156;7.700;2023-05-09T22:23:13;99748.00;;;15.34;100.00
40940;BME280;26666;50.156;7.700;2023-05-09T22:28:16;99748.53;;;15.30;100.00
40940;BME280;26666;50.156;7.700;2023-05-09T22:33:18;99746.53;;;15.32;100.00
40940;BME280;26666;50.156;7.700;2023-05-09T22:38:20;99741.53;;;15.29;100.00
40940;BME280;26666;50.156;7.700;2023-05-09T22:43:23;99737.41;;;15.26;100.00
40940;BME280;26666;50.156;7.700;2023-05-09T22:48:34;99741.91;;;15.26;100.00
40940;BME280;26666;50.156;7.700;2023-05-09T22:53:35;99748.22;;;15.25;100.00
40940;BME280;26666;50.156;7.700;2023-05-09T22:58:38;99750.72;;;15.26;100.00
40940;BME280;26666;50.156;7.700;2023-05-09T23:03:40;99745.56;;;15.25;100.00
40940;BME280;26666;50.156;7.700;2023-05-09T23:08:42;99750.78;;;15.18;100.00
40940;BME280;26666;50.156;7.700;2023-05-09T23:13:45;99757.09;;;15.17;100.00
40940;BME280;26666;50.156;7.700;2023-05-09T23:18:46;99756.09;;;15.18;100.00
40940;BME280;26666;50.156;7.700;2023-05-09T23:23:48;99751.59;;;15.18;100.00
40940;BME280;26666;50.156;7.700;2023-05-09T23:28:51;99757.25;;;15.15;100.00
40940;BME280;26666;50.156;7.700;2023-05-09T23:33:53;99761.75;;;15.15;100.00
40940;BME280;26666;50.156;7.700;2023-05-09T23:38:54;99759.25;;;15.13;100.00
40940;BME280;26666;50.156;7.700;2023-05-09T23:43:57;99755.78;;;15.13;100.00
40940;BME280;26666;50.156;7.700;2023-05-09T23:48:59;99763.13;;;15.11;100.00
40940;BME280;26666;50.156;7.700;2023-05-09T23:54:01;99755.03;;;15.04;100.00
40940;BME280;26666;50.156;7.700;2023-05-09T23:59:04;99755.19;;;15.03;100.00
